createdAt,value
2018-06-21T00:00:42.005Z,5.67
2018-06-21T00:03:12.833Z,5.40
2018-06-21T00:05:43.101Z,6.07
2018-06-21T00:08:18.297Z,5.87
2018-06-21T00:10:49.508Z,5.90
2018-06-21T00:13:19.882Z,5.57
2018-06-21T00:26:36.856Z,6.30
2018-06-21T00:29:07.930Z,5.00
2018-06-21T00:31:39.095Z,5.90
2018-06-21T00:34:10.221Z,5.50
2018-06-21T00:36:41.754Z,4.73
2018-06-21T00:39:13.298Z,4.73
2018-06-21T00:41:44.703Z,5.20
2018-06-21T00:44:15.298Z,4.83
2018-06-21T00:46:45.494Z,4.77
2018-06-21T00:49:15.721Z,3.50
2018-06-21T00:51:46.893Z,3.73
2018-06-21T00:54:17.132Z,3.37
2018-06-21T00:56:47.321Z,4.17
2018-06-21T00:59:17.678Z,4.00
2018-06-21T01:01:47.718Z,3.63
2018-06-21T01:04:17.953Z,4.67
2018-06-21T01:06:48.249Z,4.10
2018-06-21T01:09:18.404Z,4.47
2018-06-21T01:11:48.661Z,4.77
2018-06-21T01:14:18.830Z,4.30
2018-06-21T01:16:49.051Z,4.30
2018-06-21T01:19:19.512Z,4.70
2018-06-21T01:21:49.305Z,5.03
2018-06-21T01:24:18.909Z,5.13
2018-06-21T01:26:48.349Z,5.30
2018-06-21T01:29:18.535Z,5.17
2018-06-21T01:31:48.178Z,5.47
2018-06-21T01:34:18.910Z,4.60
2018-06-21T01:36:49.098Z,4.87
2018-06-21T01:39:18.794Z,5.13
2018-06-21T01:41:48.453Z,3.87
2018-06-21T01:44:18.720Z,3.73
2018-06-21T01:46:49.108Z,4.10
2018-06-21T01:49:20.502Z,3.30
2018-06-21T01:51:50.733Z,3.87
2018-06-21T01:54:20.901Z,2.70
2018-06-21T01:56:51.844Z,2.90
2018-06-21T01:59:22.208Z,3.33
2018-06-21T02:01:52.625Z,3.07
2018-06-21T02:04:22.967Z,3.27
2018-06-21T02:06:53.452Z,2.40
2018-06-21T02:09:24.385Z,2.60
2018-06-21T02:11:54.791Z,2.87
2018-06-21T02:14:24.920Z,3.20
2018-06-21T02:16:55.215Z,2.90
2018-06-21T02:19:25.600Z,2.40
2018-06-21T02:21:56.042Z,2.87
2018-06-21T02:24:26.265Z,2.70
2018-06-21T02:26:56.563Z,2.30
2018-06-21T02:29:26.886Z,2.73
2018-06-21T02:31:57.350Z,2.60
2018-06-21T02:34:27.833Z,2.70
2018-06-21T02:36:58.096Z,2.50
2018-06-21T02:39:28.238Z,2.30
2018-06-21T02:41:58.488Z,2.50
2018-06-21T02:44:28.819Z,2.60
2018-06-21T02:46:59.037Z,2.40
2018-06-21T02:49:29.223Z,2.50
2018-06-21T02:51:59.587Z,2.13
2018-06-21T02:54:29.624Z,1.90
2018-06-21T02:56:59.877Z,2.33
2018-06-21T02:59:29.910Z,2.37
2018-06-21T03:02:00.388Z,2.33
2018-06-21T03:04:30.886Z,2.90
2018-06-21T03:07:01.224Z,1.83
2018-06-21T03:09:31.449Z,1.50
2018-06-21T03:12:01.773Z,1.80
2018-06-21T03:14:32.870Z,2.97
2018-06-21T03:17:03.434Z,2.60
2018-06-21T03:19:33.641Z,3.90
2018-06-21T03:22:04.949Z,2.73
2018-06-21T03:24:35.463Z,2.47
2018-06-21T03:27:06.430Z,2.10
2018-06-21T03:29:37.316Z,1.87
2018-06-21T03:32:07.524Z,3.20
2018-06-21T03:34:38.112Z,2.33
2018-06-21T03:37:08.431Z,1.90
2018-06-21T03:39:38.699Z,3.00
2018-06-21T03:42:09.963Z,3.00
2018-06-21T03:47:19.678Z,2.83
2018-06-21T03:49:50.139Z,2.93
2018-06-21T03:52:21.040Z,3.00
2018-06-21T03:54:51.306Z,3.13
2018-06-21T03:57:21.816Z,2.83
2018-06-21T03:59:52.194Z,2.40
2018-06-21T04:02:22.640Z,3.40
2018-06-21T04:04:53.104Z,2.47
2018-06-21T04:07:23.507Z,3.30
2018-06-21T04:09:53.794Z,3.33
2018-06-21T04:12:25.427Z,3.30
2018-06-21T04:14:55.880Z,3.17
2018-06-21T04:17:26.372Z,3.77
2018-06-21T04:19:56.784Z,3.43
2018-06-21T04:22:27.073Z,3.47
2018-06-21T04:24:56.799Z,3.43
2018-06-21T04:27:27.114Z,3.23
2018-06-21T04:29:57.653Z,3.10
2018-06-21T04:32:28.155Z,3.13
2018-06-21T04:34:58.438Z,3.50
2018-06-21T04:37:28.974Z,2.83
2018-06-21T04:39:59.208Z,3.40
2018-06-21T04:45:14.577Z,3.97
2018-06-21T04:47:45.656Z,4.23
2018-06-21T04:50:16.013Z,7.30
2018-06-21T04:52:46.276Z,5.43
2018-06-21T04:55:16.552Z,5.50
2018-06-21T04:57:46.719Z,5.63
2018-06-21T05:00:17.112Z,5.10
2018-06-21T05:02:47.420Z,4.87
2018-06-21T05:05:17.736Z,5.70
2018-06-21T05:07:48.273Z,6.43
2018-06-21T05:10:18.502Z,5.47
2018-06-21T05:12:48.636Z,6.03
2018-06-21T05:15:18.811Z,6.40
2018-06-21T05:17:49.142Z,7.20
2018-06-21T05:20:19.714Z,6.77
2018-06-21T05:22:50.053Z,6.20
2018-06-21T05:25:20.125Z,6.37
2018-06-21T05:27:50.490Z,6.53
2018-06-21T05:30:20.707Z,5.93
2018-06-21T05:32:50.852Z,6.57
2018-06-21T05:35:21.079Z,6.47
2018-06-21T05:37:51.238Z,6.20
2018-06-21T05:40:29.207Z,5.20
2018-06-21T05:43:00.589Z,5.90
2018-06-21T05:45:30.929Z,5.70
2018-06-21T05:48:02.411Z,5.57
2018-06-21T05:50:33.755Z,6.07
2018-06-21T05:53:04.095Z,5.70
2018-06-21T05:55:35.069Z,4.73
2018-06-21T05:58:05.405Z,5.20
2018-06-21T06:00:35.946Z,5.27
2018-06-21T06:03:07.098Z,4.33
2018-06-21T06:05:37.325Z,3.20
2018-06-21T06:08:07.569Z,5.27
2018-06-21T06:10:37.949Z,19.37
2018-06-21T06:13:07.525Z,3.33
2018-06-21T06:15:38.189Z,3.87
2018-06-21T06:18:08.762Z,2.95
2018-06-21T06:20:39.084Z,3.58
2018-06-21T06:23:09.234Z,3.33
2018-06-21T06:25:39.651Z,4.33
2018-06-21T06:28:09.994Z,4.35
2018-06-21T06:30:39.744Z,4.22
2018-06-21T06:33:09.904Z,3.40
2018-06-21T06:35:40.058Z,4.22
2018-06-21T06:38:10.594Z,3.98
2018-06-21T06:40:40.850Z,4.22
2018-06-21T06:43:11.100Z,4.17
2018-06-21T06:45:41.602Z,4.45
2018-06-21T06:48:11.856Z,4.65
2018-06-21T06:50:42.004Z,4.50
2018-06-21T06:53:11.646Z,4.35
2018-06-21T06:55:41.900Z,4.72
2018-06-21T06:58:12.091Z,4.95
2018-06-21T07:00:43.363Z,4.22
2018-06-21T07:03:13.574Z,4.58
2018-06-21T07:05:44.145Z,5.00
2018-06-21T07:08:14.347Z,4.80
2018-06-21T07:10:44.540Z,4.97
2018-06-21T07:13:14.957Z,4.55
2018-06-21T07:15:45.487Z,4.45
2018-06-21T07:18:15.745Z,4.25
2018-06-21T07:20:48.365Z,5.20
2018-06-21T07:23:19.681Z,5.35
2018-06-21T07:25:52.447Z,5.17
2018-06-21T07:28:23.265Z,4.55
2018-06-21T07:30:53.723Z,5.35
2018-06-21T07:33:24.088Z,5.47
2018-06-21T07:35:54.590Z,4.42
2018-06-21T07:38:25.045Z,4.17
2018-06-21T07:40:55.489Z,4.22
2018-06-21T07:43:25.694Z,4.72
2018-06-21T07:45:56.266Z,4.60
2018-06-21T07:48:27.009Z,5.40
2018-06-21T07:50:57.290Z,4.90
2018-06-21T07:53:27.593Z,4.97
2018-06-21T07:55:57.977Z,4.78
2018-06-21T07:58:28.222Z,5.40
2018-06-21T08:00:58.735Z,4.47
2018-06-21T08:03:30.563Z,5.10
2018-06-21T08:06:01.084Z,4.60
2018-06-21T08:08:31.896Z,5.60
2018-06-21T08:11:03.859Z,5.12
2018-06-21T08:13:34.586Z,5.83
2018-06-21T08:16:06.364Z,5.55
2018-06-21T08:18:36.914Z,4.95
2018-06-21T08:21:07.424Z,5.67
2018-06-21T08:23:37.686Z,4.92
2018-06-21T08:26:08.068Z,5.30
2018-06-21T08:28:38.372Z,4.83
2018-06-21T08:31:08.709Z,5.25
2018-06-21T08:33:38.959Z,4.78
2018-06-21T08:36:09.374Z,5.72
2018-06-21T08:38:39.650Z,4.37
2018-06-21T08:41:10.043Z,4.72
2018-06-21T08:43:40.778Z,4.87
2018-06-21T08:46:11.818Z,4.15
2018-06-21T08:48:42.072Z,4.72
2018-06-21T08:51:12.600Z,4.78
2018-06-21T08:53:42.885Z,5.03
2018-06-21T08:56:13.193Z,5.17
2018-06-21T08:58:43.560Z,5.55
2018-06-21T09:01:14.222Z,5.30
2018-06-21T09:03:44.451Z,6.03
2018-06-21T09:06:14.276Z,5.50
2018-06-21T09:08:44.447Z,7.33
2018-06-21T09:11:14.728Z,6.30
2018-06-21T09:13:45.020Z,5.50
2018-06-21T09:16:15.549Z,6.75
2018-06-21T09:18:47.295Z,6.03
2018-06-21T09:21:17.683Z,6.90
2018-06-21T09:23:47.959Z,5.65
2018-06-21T09:26:18.422Z,5.20
2018-06-21T09:28:48.650Z,4.85
2018-06-21T09:31:19.216Z,5.08
2018-06-21T09:33:49.641Z,5.60
2018-06-21T09:36:20.171Z,5.03
2018-06-21T09:38:55.566Z,4.55
2018-06-21T09:41:31.111Z,5.50
2018-06-21T09:44:35.528Z,6.50
2018-06-21T09:47:11.185Z,5.42
2018-06-21T09:49:41.839Z,4.90
2018-06-21T09:52:14.226Z,5.25
2018-06-21T09:54:44.939Z,5.53
2018-06-21T09:57:15.530Z,5.55
2018-06-21T09:59:46.013Z,5.40
2018-06-21T10:02:16.418Z,4.67
2018-06-21T10:04:46.554Z,4.55
2018-06-21T10:07:16.822Z,5.20
2018-06-21T10:09:47.271Z,4.58
2018-06-21T10:12:18.490Z,4.87
2018-06-21T10:14:48.281Z,4.70
2018-06-21T10:17:19.546Z,4.62
2018-06-21T10:19:50.534Z,4.53
2018-06-21T10:22:20.287Z,4.15
2018-06-21T10:24:50.706Z,4.40
2018-06-21T10:27:21.229Z,4.37
2018-06-21T10:29:51.663Z,5.05
2018-06-21T10:32:22.216Z,4.62
2018-06-21T10:34:52.648Z,4.83
2018-06-21T10:37:23.185Z,3.72
2018-06-21T10:39:53.623Z,3.70
2018-06-21T10:42:23.881Z,4.00
2018-06-21T10:44:54.096Z,3.75
2018-06-21T10:47:24.586Z,4.05
2018-06-21T10:49:55.007Z,5.20
2018-06-21T10:52:26.837Z,4.97
2018-06-21T10:54:57.599Z,3.75
2018-06-21T10:57:28.028Z,5.25
2018-06-21T10:59:58.374Z,6.33
2018-06-21T11:02:29.586Z,4.60
2018-06-21T11:04:59.812Z,4.67
2018-06-21T11:07:30.771Z,5.70
2018-06-21T11:10:01.952Z,5.50
2018-06-21T11:12:32.407Z,5.85
2018-06-21T11:15:02.405Z,5.15
2018-06-21T11:17:32.676Z,4.45
2018-06-21T11:20:02.970Z,4.97
2018-06-21T11:22:33.497Z,6.08
2018-06-21T11:25:03.435Z,5.95
2018-06-21T11:27:33.612Z,6.35
2018-06-21T11:30:04.175Z,5.50
2018-06-21T11:32:34.328Z,5.22
2018-06-21T11:35:04.594Z,5.30
2018-06-21T11:37:35.075Z,4.97
2018-06-21T11:40:05.456Z,6.35
2018-06-21T11:42:35.921Z,5.42
2018-06-21T11:45:06.624Z,5.95
2018-06-21T11:47:36.640Z,8.23
2018-06-21T11:50:06.900Z,6.28
2018-06-21T11:52:37.274Z,7.83
2018-06-21T11:55:07.924Z,7.75
2018-06-21T11:57:38.761Z,5.65
2018-06-21T12:00:09.188Z,5.33
2018-06-21T12:02:39.455Z,5.10
2018-06-21T12:05:09.918Z,4.75
2018-06-21T12:07:40.566Z,4.80
2018-06-21T12:10:10.767Z,5.05
2018-06-21T12:12:41.664Z,4.42
2018-06-21T12:15:12.171Z,5.03
2018-06-21T12:17:43.524Z,4.40
2018-06-21T12:20:14.214Z,4.22
2018-06-21T12:22:44.459Z,5.40
2018-06-21T12:25:15.143Z,4.92
2018-06-21T12:27:46.013Z,5.28
2018-06-21T12:30:17.165Z,3.70
2018-06-21T12:32:47.674Z,3.67
2018-06-21T12:35:19.747Z,3.08
2018-06-21T12:37:53.397Z,3.15
2018-06-21T12:40:23.715Z,3.62
2018-06-21T12:42:55.653Z,3.35
2018-06-21T12:45:26.375Z,4.28
2018-06-21T12:47:56.933Z,3.62
2018-06-21T12:50:27.241Z,3.87
2018-06-21T12:52:58.673Z,3.35
2018-06-21T12:55:29.127Z,3.17
2018-06-21T12:58:01.211Z,3.80
2018-06-21T13:00:32.027Z,3.05
2018-06-21T13:03:02.692Z,3.00
2018-06-21T13:05:34.529Z,3.85
2018-06-21T13:08:05.081Z,3.80
2018-06-21T13:10:46.076Z,3.23
2018-06-21T13:13:21.289Z,1.87
2018-06-21T13:15:51.953Z,2.90
2018-06-21T13:18:22.491Z,2.67
2018-06-21T13:20:53.495Z,2.50
2018-06-21T13:23:24.087Z,3.45
2018-06-21T13:25:54.224Z,4.08
2018-06-21T13:28:24.660Z,3.52
2018-06-21T13:30:55.276Z,4.92
2018-06-21T13:33:25.740Z,2.83
2018-06-21T13:35:56.275Z,2.27
2018-06-21T13:38:27.175Z,2.90
2018-06-21T13:40:58.237Z,4.53
2018-06-21T13:43:30.945Z,2.37
2018-06-21T13:46:01.520Z,2.25
2018-06-21T13:48:31.733Z,2.37
2018-06-21T13:51:02.089Z,2.95
2018-06-21T13:53:32.097Z,2.42
2018-06-21T13:56:02.426Z,2.77
2018-06-21T13:58:32.802Z,2.40
2018-06-21T14:01:03.362Z,2.70
2018-06-21T14:03:33.976Z,2.33
2018-06-21T14:06:03.564Z,2.60
2018-06-21T14:08:33.317Z,2.52
2018-06-21T14:11:02.936Z,3.12
2018-06-21T14:13:33.245Z,2.77
2018-06-21T14:16:03.642Z,2.77
2018-06-21T14:18:34.055Z,3.05
2018-06-21T14:21:03.953Z,3.20
2018-06-21T14:23:34.153Z,3.02
2018-06-21T14:26:04.448Z,2.30
2018-06-21T14:28:35.086Z,2.22
2018-06-21T14:31:05.491Z,2.10
2018-06-21T14:33:35.503Z,2.08
2018-06-21T14:36:05.977Z,2.02
2018-06-21T14:38:37.564Z,1.70
2018-06-21T14:41:08.931Z,2.00
2018-06-21T14:43:39.334Z,1.85
2018-06-21T14:46:09.673Z,1.57
2018-06-21T14:48:40.160Z,1.75
2018-06-21T14:51:10.411Z,1.60
2018-06-21T14:53:40.623Z,1.30
2018-06-21T14:56:10.463Z,1.15
2018-06-21T14:58:40.290Z,1.55
2018-06-21T15:01:10.370Z,1.37
2018-06-21T15:03:40.583Z,1.50
2018-06-21T15:06:11.084Z,1.40
2018-06-21T15:08:41.407Z,1.52
2018-06-21T15:11:11.888Z,1.17
2018-06-21T15:13:42.521Z,1.57
2018-06-21T15:16:12.234Z,1.50
2018-06-21T15:18:42.914Z,1.47
2018-06-21T15:21:13.121Z,1.87
2018-06-21T15:23:43.860Z,1.90
2018-06-21T15:26:14.148Z,1.75
2018-06-21T15:28:44.120Z,1.67
2018-06-21T15:31:14.455Z,1.30
2018-06-21T15:33:44.451Z,1.50
2018-06-21T15:36:14.757Z,1.60
2018-06-21T15:38:44.755Z,1.42
2018-06-21T15:41:14.269Z,1.87
2018-06-21T15:43:44.386Z,1.60
2018-06-21T15:46:14.471Z,1.80
2018-06-21T15:48:44.962Z,1.85
2018-06-21T15:51:15.534Z,1.60
2018-06-21T15:53:45.915Z,1.67
2018-06-21T15:56:16.261Z,1.57
2018-06-21T15:58:46.240Z,1.75
2018-06-21T16:01:16.849Z,1.77
2018-06-21T16:03:46.693Z,1.70
2018-06-21T16:06:16.953Z,1.92
2018-06-21T16:08:47.659Z,1.87
2018-06-21T16:11:17.977Z,1.72
2018-06-21T16:13:48.415Z,1.67
2018-06-21T16:16:18.743Z,1.90
2018-06-21T16:18:49.580Z,1.57
2018-06-21T16:21:20.347Z,1.77
2018-06-21T16:23:50.177Z,1.70
2018-06-21T16:26:20.978Z,1.95
2018-06-21T16:28:51.881Z,1.47
2018-06-21T16:31:22.315Z,1.82
2018-06-21T16:33:52.937Z,1.50
2018-06-21T16:36:24.453Z,2.00
2018-06-21T16:38:54.643Z,1.70
2018-06-21T16:41:24.999Z,2.00
2018-06-21T16:43:54.849Z,2.25
2018-06-21T16:46:25.152Z,1.57
2018-06-21T16:48:55.582Z,1.70
2018-06-21T16:51:26.186Z,1.77
2018-06-21T16:53:57.073Z,2.00
2018-06-21T16:56:27.664Z,1.62
2018-06-21T16:58:57.838Z,2.05
2018-06-21T17:01:28.758Z,1.90
2018-06-21T17:03:59.226Z,1.90
2018-06-21T17:06:29.712Z,1.77
2018-06-21T17:08:59.983Z,2.02
2018-06-21T17:11:30.201Z,1.98
2018-06-21T17:14:00.388Z,1.82
2018-06-21T17:16:31.066Z,1.72
2018-06-21T17:19:00.927Z,1.92
2018-06-21T17:21:30.924Z,2.00
2018-06-21T17:24:01.281Z,1.77
2018-06-21T17:26:31.574Z,1.70
2018-06-21T17:31:45.256Z,1.98
2018-06-21T17:34:15.477Z,1.80
2018-06-21T17:36:46.043Z,2.27
2018-06-21T17:39:16.619Z,2.20
2018-06-21T17:41:47.180Z,1.65
2018-06-21T17:44:18.129Z,1.52
2018-06-21T17:46:48.510Z,2.00
2018-06-21T17:49:18.713Z,1.95
2018-06-21T17:51:49.018Z,2.15
2018-06-21T17:54:19.704Z,2.10
2018-06-21T17:56:49.905Z,2.17
2018-06-21T17:59:20.493Z,1.92
2018-06-21T18:01:50.866Z,1.50
2018-06-21T18:04:21.634Z,1.80
2018-06-21T18:06:52.587Z,1.70
2018-06-21T18:09:23.774Z,1.50
2018-06-21T18:11:54.711Z,1.70
2018-06-21T18:14:25.648Z,2.12
2018-06-21T18:16:57.856Z,1.80
2018-06-21T18:19:29.536Z,2.12
2018-06-21T18:22:01.404Z,2.08
2018-06-21T18:24:33.335Z,2.12
2018-06-21T18:27:07.239Z,2.17
2018-06-21T18:29:37.831Z,2.08
2018-06-21T18:32:11.825Z,2.30
2018-06-21T18:34:42.696Z,2.17
2018-06-21T18:37:13.094Z,2.67
2018-06-21T18:39:43.500Z,2.37
2018-06-21T18:42:13.947Z,2.00
2018-06-21T18:44:45.533Z,2.00
2018-06-21T18:47:16.827Z,2.40
2018-06-21T18:49:48.011Z,2.47
2018-06-21T18:52:18.636Z,2.67
2018-06-21T18:54:52.655Z,1.90
2018-06-21T18:57:24.424Z,2.05
2018-06-21T18:59:56.029Z,1.98
2018-06-21T19:02:27.224Z,2.27
2018-06-21T19:04:58.529Z,2.72
2018-06-21T19:07:34.076Z,2.95
2018-06-21T19:10:09.669Z,2.50
2018-06-21T19:12:40.479Z,2.77
2018-06-21T19:15:12.811Z,2.52
2018-06-21T19:17:43.739Z,2.33
2018-06-21T19:20:15.812Z,3.07
2018-06-21T19:22:48.149Z,2.40
2018-06-21T19:25:19.220Z,3.00
2018-06-21T19:27:50.925Z,2.15
2018-06-21T19:30:22.393Z,2.98
2018-06-21T19:32:54.878Z,2.75
2018-06-21T19:35:28.221Z,2.50
2018-06-21T19:37:59.400Z,2.65
2018-06-21T19:40:36.818Z,2.50
2018-06-21T19:43:07.743Z,2.90
2018-06-21T19:45:42.290Z,2.53
2018-06-21T19:48:13.470Z,3.10
2018-06-21T19:50:45.189Z,3.05
2018-06-21T19:53:16.490Z,3.20
2018-06-21T19:55:47.947Z,2.77
2018-06-21T19:58:18.421Z,3.08
2018-06-21T20:00:49.237Z,2.50
2018-06-21T20:03:23.278Z,2.90
2018-06-21T20:05:54.819Z,3.27
2018-06-21T20:08:25.112Z,3.35
2018-06-21T20:11:01.063Z,2.60
2018-06-21T20:13:41.837Z,2.50
2018-06-21T20:16:14.945Z,2.83
2018-06-21T20:18:50.528Z,2.80
2018-06-21T20:21:24.795Z,2.65
2018-06-21T20:24:00.445Z,2.57
2018-06-21T20:26:32.987Z,2.00
2018-06-21T20:29:09.830Z,3.03
2018-06-21T20:31:42.034Z,2.08
2018-06-21T20:34:15.349Z,2.17
2018-06-21T20:36:47.903Z,1.87
2018-06-21T20:39:22.729Z,2.58
2018-06-21T20:41:56.513Z,1.65
2018-06-21T20:44:31.069Z,1.75
2018-06-21T20:47:03.313Z,1.67
2018-06-21T20:49:37.767Z,1.75
2018-06-21T20:52:19.807Z,1.70
2018-06-21T20:54:52.686Z,1.40
2018-06-21T20:57:27.145Z,1.47
2018-06-21T21:00:00.866Z,1.75
2018-06-21T21:02:33.671Z,1.70
2018-06-21T21:05:07.000Z,1.60
2018-06-21T21:07:40.215Z,2.15
2018-06-21T21:10:13.727Z,1.67
2018-06-21T21:12:46.305Z,1.70
2018-06-21T21:15:19.945Z,1.90
2018-06-21T21:17:51.764Z,2.17
2018-06-21T21:20:26.829Z,1.70
2018-06-21T21:22:59.315Z,1.80
2018-06-21T21:25:33.661Z,1.65
2018-06-21T21:28:08.020Z,2.08
2018-06-21T21:30:44.330Z,1.85
2018-06-21T21:33:16.661Z,2.10
2018-06-21T21:35:48.558Z,1.95
2018-06-21T21:38:26.158Z,1.87
2018-06-21T21:41:00.675Z,1.75
2018-06-21T21:43:32.863Z,1.75
2018-06-21T21:46:05.737Z,1.67
2018-06-21T21:48:37.293Z,1.60
2018-06-21T21:51:13.499Z,2.00
2018-06-21T21:53:49.276Z,1.75
2018-06-21T21:56:24.566Z,1.32
2018-06-21T21:58:59.617Z,1.72
2018-06-21T22:01:31.519Z,1.32
2018-06-21T22:04:02.157Z,1.72
2018-06-21T22:06:32.774Z,1.90
2018-06-21T22:09:05.300Z,1.77
2018-06-21T22:11:37.937Z,1.80
2018-06-21T22:14:09.738Z,1.70
2018-06-21T22:16:40.810Z,1.80
2018-06-21T22:19:12.846Z,1.55
2018-06-21T22:21:43.566Z,1.80
2018-06-21T22:24:14.761Z,2.55
2018-06-21T22:26:45.361Z,1.90
2018-06-21T22:29:17.364Z,1.77
2018-06-21T22:31:50.881Z,2.20
2018-06-21T22:34:22.656Z,1.98
2018-06-21T22:36:57.210Z,2.20
2018-06-21T22:39:27.558Z,2.30
2018-06-21T22:41:57.790Z,1.80
2018-06-21T22:44:27.997Z,2.00
2018-06-21T22:46:58.431Z,2.52
2018-06-21T22:49:28.678Z,2.08
2018-06-21T22:51:58.945Z,2.02
2018-06-21T22:54:29.482Z,1.62
2018-06-21T22:56:59.813Z,2.00
2018-06-21T22:59:29.918Z,2.35
2018-06-21T23:02:00.084Z,2.22
2018-06-21T23:04:30.326Z,2.40
2018-06-21T23:07:00.540Z,2.07
2018-06-21T23:09:30.961Z,1.85
2018-06-21T23:12:01.547Z,1.77
2018-06-21T23:14:32.005Z,2.20
2018-06-21T23:17:02.298Z,2.37
2018-06-21T23:19:33.664Z,1.90
2018-06-21T23:22:04.253Z,2.20
2018-06-21T23:24:34.516Z,2.40
2018-06-21T23:27:04.589Z,1.50
2018-06-21T23:29:34.699Z,2.70
2018-06-21T23:32:05.400Z,2.27
2018-06-21T23:34:35.805Z,2.47
2018-06-21T23:37:06.017Z,2.40
2018-06-21T23:39:36.306Z,2.25
2018-06-21T23:42:06.703Z,2.40
2018-06-21T23:44:36.935Z,3.08
2018-06-21T23:47:07.205Z,2.40
2018-06-21T23:49:37.565Z,2.40
2018-06-21T23:52:07.797Z,2.50
2018-06-21T23:54:38.301Z,2.65
2018-06-21T23:57:08.469Z,2.10
2018-06-21T23:59:38.701Z,2.87
